Time;durP1;ratioP1;P1;durP2;ratioP2;P2;SDS_P1;SDS_P2;PMS_P1;PMS_P2;Temp;Humidity;BMP_temperature;BMP_pressure;BME280_temperature;BME280_humidity;BME280_pressure;Samples;Min_cycle;Max_cycle;Signal;HPM_P1;HPM_P2
2022/08/25 00:01:25;;;;;;;35.78;27.05;;;;;;;20.90;100.00;100578.63;2962800;78;21065;-85
2022/08/25 00:05:29;;;;;;;35.10;25.50;;;;;;;20.98;100.00;100575.32;2958596;79;21033;-85
2022/08/25 00:09:32;;;;;;;29.80;23.27;;;;;;;21.07;100.00;100577.94;2958177;79;21059;-84
2022/08/25 00:13:33;;;;;;;25.08;21.40;;;;;;;21.09;100.00;100573.18;2973183;79;21005;-85
2022/08/25 00:17:35;;;;;;;49.40;23.02;;;;;;;20.89;100.00;100572.41;2934959;79;20999;-85
2022/08/25 00:21:36;;;;;;;27.80;21.95;;;;;;;20.88;100.00;100572.58;2951267;78;21016;-85
2022/08/25 00:25:37;;;;;;;28.85;22.37;;;;;;;20.78;100.00;100570.98;2968750;79;21019;-85
2022/08/25 00:29:39;;;;;;;27.80;22.87;;;;;;;20.67;100.00;100571.42;2949848;79;21012;-85
2022/08/25 00:33:41;;;;;;;25.17;21.45;;;;;;;20.55;100.00;100570.55;2978893;79;21004;-85
2022/08/25 00:37:43;;;;;;;23.47;20.15;;;;;;;20.45;100.00;100571.84;2962267;79;21102;-85
2022/08/25 00:41:44;;;;;;;24.63;21.35;;;;;;;20.36;100.00;100564.33;2920393;81;21010;-85
2022/08/25 00:45:45;;;;;;;26.60;21.15;;;;;;;20.40;100.00;100565.11;2921615;80;21023;-85
2022/08/25 00:49:53;;;;;;;28.38;22.07;;;;;;;20.46;100.00;100566.77;2934482;79;21037;-85
2022/08/25 00:53:55;;;;;;;29.92;23.70;;;;;;;20.49;100.00;100560.98;2863384;81;21641;-85
2022/08/25 00:58:17;;;;;;;24.57;20.77;;;;;;;20.61;100.00;100564.08;2868937;81;21520;-85
2022/08/25 01:02:18;;;;;;;33.40;23.90;;;;;;;20.59;100.00;100560.72;2932073;78;21053;-85
2022/08/25 01:06:20;;;;;;;29.60;21.30;;;;;;;20.61;100.00;100563.54;2943344;78;21014;-85
2022/08/25 01:10:23;;;;;;;26.50;21.42;;;;;;;20.67;100.00;100560.62;2946057;78;21144;-85
2022/08/25 01:14:26;;;;;;;26.75;22.93;;;;;;;20.68;100.00;100559.59;2938570;79;20990;-85
2022/08/25 01:18:28;;;;;;;25.80;19.95;;;;;;;20.66;100.00;100561.64;2931501;79;21077;-85
2022/08/25 01:22:30;;;;;;;23.22;19.48;;;;;;;20.60;100.00;100562.39;2942042;79;21527;-85
2022/08/25 01:26:34;;;;;;;21.65;19.02;;;;;;;20.52;100.00;100557.91;2933917;80;21073;-85
2022/08/25 01:30:36;;;;;;;31.50;24.45;;;;;;;20.55;100.00;100557.05;2949480;80;21070;-85
2022/08/25 01:34:42;;;;;;;31.82;26.42;;;;;;;20.61;100.00;100546.51;2940799;80;21542;-85
2022/08/25 01:38:44;;;;;;;26.80;21.80;;;;;;;20.70;100.00;100556.19;2939126;79;21035;-85
2022/08/25 01:43:08;;;;;;;30.35;25.10;;;;;;;20.69;100.00;100551.31;2927870;79;21057;-86
2022/08/25 01:47:10;;;;;;;35.17;25.27;;;;;;;20.78;100.00;100543.95;2947559;80;21558;-85
2022/08/25 01:51:14;;;;;;;33.60;27.62;;;;;;;20.88;100.00;100545.55;2933075;79;21627;-86
2022/08/25 01:55:15;;;;;;;38.48;22.87;;;;;;;20.91;100.00;100547.37;2922856;80;21082;-85
2022/08/25 01:59:19;;;;;;;27.15;22.13;;;;;;;20.70;100.00;100537.27;2946202;79;21001;-84
2022/08/25 02:03:21;;;;;;;30.08;23.65;;;;;;;20.68;100.00;100541.52;2877022;80;21058;-85
2022/08/25 02:07:22;;;;;;;32.23;22.40;;;;;;;20.57;100.00;100540.62;2935216;80;21106;-85
2022/08/25 02:11:24;;;;;;;27.00;22.30;;;;;;;20.49;100.00;100542.90;2932900;80;20944;-85
2022/08/25 02:15:26;;;;;;;26.87;23.98;;;;;;;20.41;100.00;100545.17;2933490;79;21011;-85
2022/08/25 02:19:29;;;;;;;31.20;24.98;;;;;;;20.34;100.00;100545.59;2939319;80;21002;-85
2022/08/25 02:23:30;;;;;;;35.28;26.27;;;;;;;20.28;100.00;100547.69;2945376;79;21047;-85
2022/08/25 02:27:31;;;;;;;31.82;24.60;;;;;;;20.33;100.00;100543.91;2945710;80;21011;-85
2022/08/25 02:31:33;;;;;;;30.65;25.37;;;;;;;20.37;100.00;100537.64;2944141;79;21553;-85
2022/08/25 02:35:36;;;;;;;34.40;23.70;;;;;;;20.38;100.00;100538.79;2945675;79;21031;-86
2022/08/25 02:39:37;;;;;;;26.62;23.20;;;;;;;20.39;100.00;100541.81;2879287;79;21019;-86
2022/08/25 02:43:40;;;;;;;35.28;25.08;;;;;;;20.39;100.00;100545.05;2938817;79;21082;-85
2022/08/25 02:47:42;;;;;;;31.82;24.23;;;;;;;20.45;100.00;100530.79;2940152;80;21054;-85
2022/08/25 02:51:43;;;;;;;32.50;24.70;;;;;;;20.47;100.00;100534.67;2927015;80;21073;-85
2022/08/25 02:55:46;;;;;;;29.48;24.45;;;;;;;20.48;100.00;100529.06;2936121;79;20975;-85
2022/08/25 02:59:47;;;;;;;35.43;27.60;;;;;;;20.49;100.00;100528.56;2932829;79;21184;-85
2022/08/25 03:03:50;;;;;;;32.15;28.45;;;;;;;20.52;100.00;100524.14;2936785;80;21057;-85
2022/08/25 03:07:52;;;;;;;35.92;26.90;;;;;;;20.47;100.00;100518.46;2930694;79;21042;-85
2022/08/25 03:11:53;;;;;;;36.25;26.77;;;;;;;20.43;100.00;100522.03;2936047;79;21064;-84
2022/08/25 03:15:54;;;;;;;29.23;24.07;;;;;;;20.40;100.00;100527.28;2945400;79;21010;-85
2022/08/25 03:19:55;;;;;;;31.37;25.43;;;;;;;20.51;100.00;100528.69;2947910;79;21023;-86
2022/08/25 03:23:58;;;;;;;26.82;20.97;;;;;;;20.51;100.00;100526.52;2938265;80;21417;-86
2022/08/25 03:28:00;;;;;;;29.10;22.98;;;;;;;20.33;100.00;100522.30;2910827;80;21035;-87
2022/08/25 03:32:02;;;;;;;28.32;24.75;;;;;;;20.25;100.00;100512.95;2925189;80;21636;-87
2022/08/25 03:36:07;;;;;;;31.52;23.20;;;;;;;20.22;100.00;100505.19;2931513;80;21066;-88
2022/08/25 03:40:12;;;;;;;31.75;24.37;;;;;;;20.20;100.00;100512.14;2926111;80;21026;-87
2022/08/25 03:44:15;;;;;;;27.80;24.75;;;;;;;20.23;100.00;100509.56;2931964;80;21022;-87
2022/08/25 03:48:17;;;;;;;25.80;22.77;;;;;;;20.20;100.00;100511.29;2937603;79;21070;-85
2022/08/25 03:52:18;;;;;;;33.92;26.33;;;;;;;20.23;100.00;100505.02;2909751;80;21170;-87
2022/08/25 03:56:19;;;;;;;28.52;24.98;;;;;;;20.25;100.00;100513.77;2929497;79;21014;-87
2022/08/25 04:00:22;;;;;;;30.65;23.95;;;;;;;20.30;100.00;100518.63;2882479;80;21109;-87
2022/08/25 04:04:23;;;;;;;25.85;22.25;;;;;;;20.34;100.00;100510.97;2879400;80;21535;-87
2022/08/25 04:08:25;;;;;;;30.70;24.67;;;;;;;20.34;100.00;100514.52;2933061;79;21031;-87
2022/08/25 04:12:26;;;;;;;34.80;25.08;;;;;;;20.38;100.00;100522.58;2945284;80;21066;-88
2022/08/25 04:16:32;;;;;;;31.33;25.57;;;;;;;20.39;100.00;100518.86;2934163;80;21031;-86
2022/08/25 04:20:34;;;;;;;31.02;25.25;;;;;;;20.37;100.00;100518.20;2932235;80;21042;-88
2022/08/25 04:24:35;;;;;;;29.27;23.42;;;;;;;20.47;100.00;100529.27;2941399;79;21015;-86
2022/08/25 04:28:36;;;;;;;28.45;23.27;;;;;;;20.58;100.00;100532.84;2935855;79;20991;-86
2022/08/25 04:32:37;;;;;;;31.00;23.73;;;;;;;20.73;100.00;100530.66;2934358;79;21066;-86
2022/08/25 04:36:40;;;;;;;31.97;22.93;;;;;;;20.85;100.00;100531.05;2924665;79;21030;-87
2022/08/25 04:40:41;;;;;;;32.38;24.27;;;;;;;21.01;100.00;100536.76;2855386;80;21050;-86
2022/08/25 04:44:42;;;;;;;26.70;21.97;;;;;;;21.05;100.00;100536.73;2938544;80;20995;-87
2022/08/25 04:48:44;;;;;;;26.55;23.15;;;;;;;21.12;100.00;100537.64;2941275;80;21010;-87
2022/08/25 04:52:45;;;;;;;27.62;23.10;;;;;;;20.99;100.00;100534.27;2950426;79;21062;-86
2022/08/25 04:56:48;;;;;;;26.42;22.02;;;;;;;21.00;100.00;100531.87;2887756;80;20991;-86
2022/08/25 05:00:50;;;;;;;31.23;23.07;;;;;;;21.03;100.00;100528.80;2944431;79;21046;-87
2022/08/25 05:04:51;;;;;;;32.93;24.85;;;;;;;21.03;100.00;100532.00;2943008;79;21047;-87
2022/08/25 05:08:52;;;;;;;29.48;23.65;;;;;;;21.05;100.00;100531.33;2938402;79;21037;-86
2022/08/25 05:12:53;;;;;;;31.48;25.88;;;;;;;21.16;100.00;100529.99;2934738;79;21026;-87
2022/08/25 05:16:55;;;;;;;35.68;27.80;;;;;;;21.30;100.00;100530.45;2950883;79;21050;-87
2022/08/25 05:21:02;;;;;;;27.50;23.87;;;;;;;21.30;100.00;100526.39;2939533;80;21451;-87
2022/08/25 05:25:04;;;;;;;35.48;28.17;;;;;;;21.42;100.00;100524.05;2933282;80;21029;-87
2022/08/25 05:29:06;;;;;;;38.33;28.15;;;;;;;21.60;100.00;100528.16;2939042;79;21530;-86
2022/08/25 05:33:08;;;;;;;47.00;28.23;;;;;;;21.72;100.00;100525.83;2950090;80;20987;-87
2022/08/25 05:37:10;;;;;;;30.30;26.12;;;;;;;21.90;100.00;100515.34;2927221;80;21038;-87
2022/08/25 05:41:16;;;;;;;32.88;25.62;;;;;;;;;;2945059;79;22480;-87
2022/08/25 05:45:18;;;;;;;24.43;21.70;;;;;;;22.34;100.00;100515.28;2927070;80;21050;-87
2022/08/25 05:49:19;;;;;;;28.05;23.02;;;;;;;22.39;100.00;100510.92;2928483;80;21078;-87
2022/08/25 05:53:22;;;;;;;27.58;23.10;;;;;;;22.47;100.00;100507.25;2951151;79;21027;-87
2022/08/25 05:57:23;;;;;;;24.90;22.20;;;;;;;22.48;100.00;100504.85;2931723;80;21015;-87
2022/08/25 06:05:47;;;;;;;24.80;21.27;;;;;;;22.60;100.00;100503.80;2927185;80;21039;-87
2022/08/25 06:09:48;;;;;;;27.20;20.12;;;;;;;22.71;100.00;100508.32;2841813;79;21097;-87
2022/08/25 06:13:50;;;;;;;36.73;25.25;;;;;;;22.83;100.00;100509.44;2939389;79;21256;-87
2022/08/25 06:17:52;;;;;;;30.88;22.45;;;;;;;22.97;100.00;100516.56;2916725;75;21018;-87
2022/08/25 06:21:55;;;;;;;31.40;22.77;;;;;;;23.08;100.00;100515.69;2933692;80;21026;-87
2022/08/25 06:25:56;;;;;;;28.38;23.73;;;;;;;23.12;100.00;100516.94;2932611;80;21038;-86
2022/08/25 06:29:57;;;;;;;38.70;23.87;;;;;;;23.20;100.00;100520.84;2934363;80;21051;-88
2022/08/25 06:33:59;;;;;;;36.00;24.55;;;;;;;23.28;100.00;100514.94;2939147;79;21026;-87
2022/08/25 06:38:00;;;;;;;42.17;24.18;;;;;;;23.34;100.00;100525.81;2919341;80;21050;-87
2022/08/25 06:42:01;;;;;;;34.38;25.10;;;;;;;23.36;100.00;100526.95;2885925;80;21105;-87
2022/08/25 06:46:11;;;;;;;31.20;24.12;;;;;;;23.46;100.00;100536.06;2914396;79;21362;-87
2022/08/25 06:50:13;;;;;;;33.30;24.65;;;;;;;23.51;100.00;100539.84;2945024;80;21066;-87
2022/08/25 06:54:14;;;;;;;25.60;22.73;;;;;;;23.54;100.00;100537.24;2948452;80;21051;-88
2022/08/25 06:58:15;;;;;;;41.70;25.77;;;;;;;23.62;100.00;100536.22;2936670;79;20999;-88
2022/08/25 07:02:16;;;;;;;33.55;24.45;;;;;;;23.68;100.00;100528.59;2941404;79;21023;-87
2022/08/25 07:06:17;;;;;;;32.08;25.57;;;;;;;23.68;100.00;100528.59;2939310;79;21066;-87
2022/08/25 07:10:19;;;;;;;36.85;25.32;;;;;;;23.67;100.00;100535.06;2881211;79;21075;-88
2022/08/25 07:14:21;;;;;;;53.20;24.10;;;;;;;23.66;100.00;100534.75;2915685;79;21049;-87
2022/08/25 07:18:22;;;;;;;32.60;22.55;;;;;;;23.67;100.00;100535.88;2950973;80;21023;-88
2022/08/25 07:22:23;;;;;;;38.35;24.50;;;;;;;23.70;100.00;100535.19;2884572;80;21486;-87
2022/08/25 07:26:29;;;;;;;31.60;24.30;;;;;;;23.73;100.00;100544.27;2938705;80;21137;-87
2022/08/25 07:30:31;;;;;;;28.70;21.57;;;;;;;23.81;100.00;100535.41;2939160;80;20998;-88
2022/08/25 07:38:52;;;;;;;28.70;23.22;;;;;;;24.00;100.00;100536.98;2926739;80;21031;-88
2022/08/25 07:42:58;;;;;;;39.53;23.07;;;;;;;24.09;100.00;100530.84;2915073;80;21026;-88
2022/08/25 07:46:59;;;;;;;32.05;24.87;;;;;;;24.07;100.00;100534.27;2933601;79;21394;-88
2022/08/25 07:51:07;;;;;;;35.73;24.87;;;;;;;24.06;100.00;100538.88;2941274;79;20987;-88
2022/08/25 07:55:09;;;;;;;32.88;24.00;;;;;;;24.03;100.00;100543.89;2942616;79;21093;-87
2022/08/25 07:59:10;;;;;;;39.48;23.95;;;;;;;24.03;100.00;100546.09;2968721;78;21026;-87
2022/08/25 08:03:11;;;;;;;33.95;23.07;;;;;;;24.00;100.00;100551.92;2940149;79;20998;-88
2022/08/25 08:07:17;;;;;;;33.60;24.63;;;;;;;23.91;100.00;100549.93;2934164;79;21022;-88
2022/08/25 08:11:26;;;;;;;39.05;25.92;;;;;;;23.94;100.00;100551.38;2907719;80;21023;-88
2022/08/25 08:15:28;;;;;;;34.38;25.05;;;;;;;24.01;100.00;100551.38;2890900;81;21029;-88
2022/08/25 08:19:29;;;;;;;42.20;25.23;;;;;;;23.97;100.00;100556.39;2919447;79;21986;-88
2022/08/25 08:23:31;;;;;;;36.50;25.10;;;;;;;23.97;100.00;100559.11;2967104;79;21061;-88
2022/08/25 08:27:32;;;;;;;33.92;27.17;;;;;;;23.90;100.00;100559.63;2966877;79;21032;-88
2022/08/25 08:31:33;;;;;;;38.02;25.80;;;;;;;23.86;100.00;100561.09;2921191;80;21065;-89
2022/08/25 08:35:34;;;;;;;28.73;22.73;;;;;;;23.87;100.00;100551.91;2949872;79;21077;-88
2022/08/25 08:39:36;;;;;;;31.52;25.95;;;;;;;23.81;100.00;100554.41;2943175;78;20978;-85
2022/08/25 08:43:40;;;;;;;38.45;23.12;;;;;;;23.83;100.00;100552.83;2961606;79;21018;-87
2022/08/25 08:48:02;;;;;;;36.23;24.05;;;;;;;23.80;100.00;100555.97;2958119;78;21314;-89
2022/08/25 08:52:06;;;;;;;41.10;25.20;;;;;;;23.80;100.00;100554.10;2964817;79;21026;-88
2022/08/25 08:56:15;;;;;;;38.25;24.30;;;;;;;23.84;100.00;100548.25;2936199;80;21034;-88
2022/08/25 09:00:17;;;;;;;34.35;24.45;;;;;;;23.89;100.00;100547.09;2930269;80;21010;-87
2022/08/25 09:04:33;;;;;;;30.68;23.07;;;;;;;23.94;100.00;100550.02;2935020;79;21077;-87
2022/08/25 09:08:36;;;;;;;31.82;22.85;;;;;;;24.03;100.00;100549.32;2936950;80;21030;-88
2022/08/25 09:12:50;;;;;;;34.20;24.90;;;;;;;24.04;100.00;100540.98;2949745;80;21070;-88
2022/08/25 09:17:08;;;;;;;30.20;22.15;;;;;;;24.09;100.00;100542.53;2940959;80;21013;-88
2022/08/25 09:21:31;;;;;;;37.15;25.62;;;;;;;24.23;100.00;100543.89;2940629;79;21089;-87
2022/08/25 09:26:02;;;;;;;33.05;22.98;;;;;;;24.24;100.00;100540.12;2940004;79;21015;-86
2022/08/25 09:30:08;;;;;;;30.32;24.35;;;;;;;24.30;100.00;100546.07;2940571;80;21070;-87
2022/08/25 09:34:20;;;;;;;32.90;24.70;;;;;;;24.31;100.00;100545.56;2924624;80;21029;-89
2022/08/25 09:38:22;;;;;;;32.88;24.12;;;;;;;24.35;100.00;100536.75;2933983;80;21023;-88
2022/08/25 09:42:45;;;;;;;31.00;24.12;;;;;;;24.39;100.00;100539.89;2935773;79;21026;-87
2022/08/25 09:47:19;;;;;;;31.40;25.30;;;;;;;24.38;100.00;100536.36;2937306;79;21025;-87
2022/08/25 09:51:38;;;;;;;30.20;25.32;;;;;;;24.47;100.00;100536.13;2940986;79;21609;-87
2022/08/25 09:55:43;;;;;;;34.80;24.45;;;;;;;24.53;100.00;100539.34;2934786;79;21184;-87
2022/08/25 09:59:45;;;;;;;38.55;25.08;;;;;;;24.60;100.00;100537.46;2917855;81;21183;-87
2022/08/25 10:04:04;;;;;;;33.45;25.35;;;;;;;24.63;100.00;100528.87;2914857;81;21176;-88
2022/08/25 10:08:23;;;;;;;32.88;27.60;;;;;;;24.60;100.00;100515.70;2915973;80;21436;-88
2022/08/25 10:12:36;;;;;;;35.80;26.62;;;;;;;24.61;100.00;100514.66;2913928;80;21081;-87
2022/08/25 10:16:38;;;;;;;34.58;26.05;;;;;;;24.58;100.00;100509.66;2907373;80;21636;-88
2022/08/25 10:20:39;;;;;;;36.30;26.10;;;;;;;24.56;100.00;100506.28;2872017;81;21063;-88
2022/08/25 10:24:40;;;;;;;40.92;26.33;;;;;;;24.59;100.00;100499.59;2913493;80;21098;-88
2022/08/25 10:28:53;;;;;;;36.23;27.37;;;;;;;24.67;100.00;100493.94;2914162;80;21006;-88
2022/08/25 10:33:19;;;;;;;32.88;23.60;;;;;;;24.76;100.00;100494.53;2910563;79;21125;-87
2022/08/25 10:37:41;;;;;;;34.27;23.32;;;;;;;24.83;100.00;100485.84;2921636;79;21101;-88
2022/08/25 10:42:09;;;;;;;38.40;24.47;;;;;;;24.97;100.00;100485.80;2857948;82;21105;-88
2022/08/25 10:46:39;;;;;;;32.25;23.52;;;;;;;25.07;100.00;100482.06;2811702;81;21070;-88
2022/08/25 10:50:57;;;;;;;36.83;23.30;;;;;;;25.14;100.00;100478.77;2854911;81;21109;-88
2022/08/25 10:55:10;;;;;;;28.45;23.57;;;;;;;25.26;100.00;100473.48;2875629;81;21063;-88
2022/08/25 10:59:35;;;;;;;33.65;25.95;;;;;;;25.35;100.00;100465.35;2852982;82;21039;-87
2022/08/25 11:03:51;;;;;;;26.42;21.48;;;;;;;25.43;100.00;100473.78;2813841;82;41838;-87
2022/08/25 11:08:00;;;;;;;29.87;19.77;;;;;;;25.50;100.00;100463.70;2857591;81;21054;-87
2022/08/25 11:12:19;;;;;;;27.80;23.22;;;;;;;25.64;100.00;100455.44;2880210;81;21079;-89
2022/08/25 11:16:44;;;;;;;28.73;24.43;;;;;;;25.85;100.00;100458.82;2868534;80;21077;-88
2022/08/25 11:21:15;;;;;;;26.10;23.07;;;;;;;26.21;100.00;100453.16;2909757;80;21061;-87
2022/08/25 11:25:41;;;;;;;24.45;19.77;;;;;;;26.50;100.00;100446.63;2937109;80;21018;-88
2022/08/25 11:29:48;;;;;;;35.08;21.42;;;;;;;26.74;100.00;100446.79;2933019;80;20947;-87
2022/08/25 11:33:50;;;;;;;27.95;20.88;;;;;;;26.85;98.52;100446.02;2939584;79;21018;-87
2022/08/25 11:38:32;;;;;;;28.98;22.35;;;;;;;27.07;98.78;100442.78;2929744;79;21108;-89
2022/08/25 11:42:54;;;;;;;24.20;19.25;;;;;;;27.18;99.39;100437.91;2943461;78;21069;-86
2022/08/25 11:47:29;;;;;;;29.32;18.75;;;;;;;27.31;97.22;100440.11;2955774;78;21096;-89
2022/08/25 11:51:47;;;;;;;25.77;19.77;;;;;;;27.42;93.83;100427.03;2925758;77;21585;-88
2022/08/25 11:55:57;;;;;;;26.65;19.92;;;;;;;27.59;93.59;100418.18;2925074;79;21024;-88
2022/08/25 12:00:09;;;;;;;28.50;20.10;;;;;;;27.55;93.88;100419.73;2940900;79;21049;-87
2022/08/25 12:04:35;;;;;;;22.65;18.52;;;;;;;27.58;95.02;100415.16;2946444;79;21019;-88
2022/08/25 12:09:02;;;;;;;27.73;20.43;;;;;;;27.28;94.61;100416.02;2940760;80;21049;-88
2022/08/25 12:13:08;;;;;;;23.25;18.55;;;;;;;27.15;97.60;100411.08;2944453;80;21036;-86
2022/08/25 12:17:23;;;;;;;21.68;17.37;;;;;;;27.11;98.41;100408.48;2923958;80;21065;-88
2022/08/25 12:21:30;;;;;;;32.15;18.32;;;;;;;27.25;96.76;100406.92;2930245;80;21656;-87
2022/08/25 12:25:36;;;;;;;32.30;19.37;;;;;;;27.40;94.58;100394.18;2931833;79;21054;-88
2022/08/25 12:29:58;;;;;;;31.10;19.90;;;;;;;27.69;97.72;100384.80;2939783;79;21046;-87
2022/08/25 12:34:44;;;;;;;24.00;19.82;;;;;;;27.71;96.35;100373.95;2929980;79;21081;-89
2022/08/25 12:38:48;;;;;;;23.10;18.30;;;;;;;27.64;94.06;100375.95;2939980;80;21085;-88
2022/08/25 12:43:04;;;;;;;27.57;17.17;;;;;;;27.87;94.55;100381.10;2947715;80;21018;-88
2022/08/25 12:47:08;;;;;;;;;;;;;;;27.87;92.87;100380.58;2933412;80;21105;-88
2022/08/25 12:51:18;;;;;;;28.17;17.87;;;;;;;27.96;94.48;100382.41;2917530;78;20395;-89
2022/08/25 12:55:22;;;;;;;32.53;18.92;;;;;;;28.01;94.55;100381.70;2941526;79;20955;-89
2022/08/25 12:59:37;;;;;;;28.45;18.50;;;;;;;27.93;95.22;100375.52;2939639;79;21018;-88
2022/08/25 13:04:00;;;;;;;;;;;;;;;28.03;96.95;100374.09;2949247;78;21050;-85
2022/08/25 13:08:45;;;;;;;25.23;16.07;;;;;;;28.12;95.58;100372.63;2963807;79;20122;-86
2022/08/25 13:12:55;;;;;;;25.85;19.15;;;;;;;28.32;95.31;100365.43;2970063;79;21034;-86
2022/08/25 13:16:58;;;;;;;30.17;17.40;;;;;;;28.41;93.06;100340.42;2915134;79;21026;-86
2022/08/25 13:21:29;;;;;;;24.98;17.67;;;;;;;28.41;93.06;100340.42;2937275;80;21003;-86
2022/08/25 13:25:31;;;;;;;22.15;16.10;;;;;;;28.55;92.82;100359.58;2931451;79;20975;-85
2022/08/25 13:29:38;;;;;;;25.85;17.40;;;;;;;28.62;91.12;100350.67;2931693;80;20978;-85
2022/08/25 13:33:43;;;;;;;23.77;17.42;;;;;;;28.65;92.20;100352.91;2933148;80;21030;-85
2022/08/25 13:37:44;;;;;;;;;;;;;;;28.64;92.11;100347.16;2890995;80;21515;-86
2022/08/25 13:41:52;;;;;;;24.27;18.10;;;;;;;28.53;94.75;100346.69;2917909;79;20096;-84
2022/08/25 13:45:53;;;;;;;20.50;15.05;;;;;;;28.52;95.70;100334.08;2935707;79;21002;-86
2022/08/25 13:50:14;;;;;;;25.50;17.23;;;;;;;28.68;96.27;100332.97;2934529;79;21045;-85
2022/08/25 13:54:32;;;;;;;25.68;17.70;;;;;;;28.69;91.69;100331.38;2921786;80;21117;-85
2022/08/25 13:58:35;;;;;;;27.02;18.77;;;;;;;28.72;92.74;100325.41;2913291;79;21029;-85
2022/08/25 14:02:51;;;;;;;28.23;16.87;;;;;;;28.83;92.07;100327.81;2932792;79;21006;-86
2022/08/25 14:07:26;;;;;;;28.07;16.37;;;;;;;28.93;93.35;100316.20;2893124;79;21006;-85
2022/08/25 14:11:33;;;;;;;35.85;17.37;;;;;;;28.97;92.82;100317.36;2971482;78;21022;-85
2022/08/25 14:15:35;;;;;;;21.97;14.53;;;;;;;29.03;92.68;100312.81;2934166;79;21116;-86
2022/08/25 14:19:44;;;;;;;25.90;16.40;;;;;;;28.91;91.70;100301.42;2905601;80;21101;-85
2022/08/25 14:23:45;;;;;;;23.62;15.85;;;;;;;29.03;91.38;100290.91;2894560;81;21106;-84
2022/08/25 14:27:56;;;;;;;23.73;14.10;;;;;;;29.21;93.26;100290.65;2975320;78;21307;-84
2022/08/25 14:31:59;;;;;;;22.48;14.83;;;;;;;29.11;88.43;100284.19;2978768;78;21015;-85
2022/08/25 14:36:04;;;;;;;19.23;14.13;;;;;;;29.16;89.65;100279.62;2920988;79;21025;-85
2022/08/25 14:40:06;;;;;;;23.85;13.13;;;;;;;29.13;87.47;100271.91;2918735;79;21120;-85
2022/08/25 14:44:09;;;;;;;20.57;13.40;;;;;;;29.27;92.77;100262.80;2920231;79;21161;-86
2022/08/25 14:48:18;;;;;;;17.55;14.28;;;;;;;29.35;88.23;100256.07;2899397;80;21034;-85
2022/08/25 14:52:28;;;;;;;23.73;12.82;;;;;;;29.37;90.22;100249.80;2918492;79;21039;-84
2022/08/25 14:56:31;;;;;;;26.33;15.55;;;;;;;29.43;89.04;100254.84;2905086;81;21022;-84
2022/08/25 15:00:36;;;;;;;25.37;15.10;;;;;;;29.47;88.00;100246.40;2919722;80;21003;-85
2022/08/25 15:04:38;;;;;;;23.55;13.32;;;;;;;29.36;88.01;100246.22;2918550;80;21002;-84
2022/08/25 15:12:59;;;;;;;20.92;13.58;;;;;;;29.41;87.29;100249.61;2976692;78;21012;-85
2022/08/25 15:17:02;;;;;;;21.17;13.15;;;;;;;29.54;88.00;100241.55;2888859;80;21053;-87
2022/08/25 15:21:03;;;;;;;17.55;12.88;;;;;;;29.59;89.83;100239.42;2883255;81;21144;-87
2022/08/25 15:25:06;;;;;;;17.98;13.08;;;;;;;29.72;89.19;100236.84;2960052;78;21010;-88
2022/08/25 15:29:07;;;;;;;29.02;14.98;;;;;;;29.66;87.14;100232.39;2959567;79;20963;-86
2022/08/25 15:33:08;;;;;;;23.92;13.05;;;;;;;29.68;87.95;100224.22;2954319;79;20967;-86
2022/08/25 15:37:14;;;;;;;19.60;12.37;;;;;;;29.79;90.31;100223.23;2963038;79;21083;-86
2022/08/25 15:41:15;;;;;;;23.62;13.80;;;;;;;29.87;87.68;100221.11;2956101;79;20975;-86
2022/08/25 15:45:17;;;;;;;28.00;11.33;;;;;;;29.80;87.39;100226.81;2957787;78;21078;-86
2022/08/25 15:49:20;;;;;;;30.55;12.60;;;;;;;29.77;89.02;100222.66;2941945;78;21038;-87
2022/08/25 15:53:24;;;;;;;19.23;12.47;;;;;;;29.83;88.98;100219.45;2930540;78;21064;-87
2022/08/25 15:57:25;;;;;;;17.30;10.63;;;;;;;29.81;89.31;100215.30;2935173;78;21037;-87
2022/08/25 16:01:28;;;;;;;20.90;11.75;;;;;;;29.75;88.89;100208.92;2940085;78;21045;-89
2022/08/25 16:05:29;;;;;;;16.15;10.85;;;;;;;29.75;88.93;100206.17;2875490;79;21066;-88
2022/08/25 16:09:31;;;;;;;18.37;12.90;;;;;;;29.77;90.11;100200.73;2867023;80;21047;-88
2022/08/25 16:13:32;;;;;;;20.88;12.07;;;;;;;29.82;89.40;100193.66;2921802;80;21252;-87
2022/08/25 16:17:33;;;;;;;22.17;12.65;;;;;;;29.81;89.95;100193.36;2898124;80;20996;-88
2022/08/25 16:21:35;;;;;;;21.85;12.30;;;;;;;29.72;90.65;100184.24;2940409;78;21002;-87
2022/08/25 16:25:43;;;;;;;20.25;12.20;;;;;;;29.71;91.68;100168.88;2951201;78;21596;-89
2022/08/25 16:29:44;;;;;;;20.97;11.12;;;;;;;29.37;90.92;100174.47;2940758;78;21057;-89
2022/08/25 16:33:45;;;;;;;26.37;12.55;;;;;;;29.36;92.65;100174.19;2890039;79;21026;-87
2022/08/25 16:37:48;;;;;;;22.35;11.00;;;;;;;29.43;93.38;100174.03;2915950;79;20980;-88
2022/08/25 16:41:51;;;;;;;21.02;13.70;;;;;;;29.44;94.00;100181.97;2939795;79;20959;-88
2022/08/25 16:46:02;;;;;;;26.02;12.82;;;;;;;29.36;94.71;100185.95;2938529;79;21007;-87
2022/08/25 16:50:07;;;;;;;25.88;14.18;;;;;;;29.32;95.42;100194.95;2939258;80;21054;-87
2022/08/25 16:58:32;;;;;;;19.75;12.63;;;;;;;29.35;96.21;100175.27;2904417;80;21062;-88
2022/08/25 17:02:33;;;;;;;25.97;13.90;;;;;;;29.32;95.57;100168.38;2908086;80;21029;-87
2022/08/25 17:06:39;;;;;;;25.60;12.85;;;;;;;29.33;95.76;100176.88;2912944;81;21058;-87
2022/08/25 17:10:42;;;;;;;21.17;12.88;;;;;;;29.24;96.18;100174.30;2913410;79;21014;-87
2022/08/25 17:14:44;;;;;;;24.82;14.10;;;;;;;28.77;97.65;100159.10;2934619;80;21380;-88
2022/08/25 17:18:45;;;;;;;30.08;16.00;;;;;;;28.54;97.42;100173.25;2943397;79;21023;-87
2022/08/25 17:22:47;;;;;;;27.90;15.32;;;;;;;28.29;98.80;100160.78;2937076;80;21053;-87
2022/08/25 17:26:48;;;;;;;20.92;15.55;;;;;;;28.38;99.52;100185.02;2955563;79;20983;-89
2022/08/25 17:30:51;;;;;;;26.85;14.78;;;;;;;28.16;99.56;100167.41;2970258;77;21034;-87
2022/08/25 17:34:52;;;;;;;23.05;13.90;;;;;;;28.05;99.75;100171.02;2921632;79;20987;-88
2022/08/25 17:38:54;;;;;;;22.20;16.85;;;;;;;27.87;100.00;100155.11;2916132;80;21031;-90
2022/08/25 17:42:55;;;;;;;25.85;16.17;;;;;;;27.77;100.00;100153.02;2913078;80;21038;-88
2022/08/25 17:46:56;;;;;;;26.68;14.20;;;;;;;27.58;100.00;100158.38;2914373;80;21003;-88
2022/08/25 17:50:59;;;;;;;28.40;14.65;;;;;;;27.58;100.00;100158.38;2910843;80;21602;-88
2022/08/25 17:55:00;;;;;;;30.72;17.10;;;;;;;27.57;100.00;100186.77;2911177;81;21650;-87
2022/08/25 17:59:01;;;;;;;23.90;16.52;;;;;;;27.57;100.00;100192.22;2914106;80;21601;-87
2022/08/25 18:03:05;;;;;;;27.35;15.13;;;;;;;27.58;100.00;100195.25;2908935;80;21657;-87
2022/08/25 18:07:06;;;;;;;29.50;16.45;;;;;;;27.60;100.00;100195.28;2897773;80;21003;-88
2022/08/25 18:11:07;;;;;;;30.23;15.28;;;;;;;27.53;100.00;100201.42;2920743;80;21026;-89
2022/08/25 18:15:10;;;;;;;26.02;15.95;;;;;;;27.45;100.00;100197.13;2879459;80;21090;-88
2022/08/25 18:19:12;;;;;;;27.48;20.75;;;;;;;27.37;100.00;100201.06;2889066;80;21077;-89
2022/08/25 18:23:13;;;;;;;24.75;18.62;;;;;;;27.28;100.00;100196.21;2913157;80;20998;-88
2022/08/25 18:27:15;;;;;;;23.35;19.02;;;;;;;27.19;100.00;100202.05;2921641;79;21629;-88
2022/08/25 18:31:16;;;;;;;22.15;16.40;;;;;;;27.05;100.00;100206.08;2909845;80;21010;-87
2022/08/25 18:35:18;;;;;;;21.97;15.95;;;;;;;26.98;100.00;100208.92;2919096;79;20987;-89
2022/08/25 18:43:39;;;;;;;24.07;16.07;;;;;;;26.82;100.00;100209.08;2894121;79;21007;-88
2022/08/25 18:47:40;;;;;;;27.55;17.75;;;;;;;26.74;100.00;100206.70;2914371;79;21030;-88
2022/08/25 18:51:43;;;;;;;26.10;17.70;;;;;;;26.72;100.00;100204.72;2913581;80;21097;-88